Midnight Sun — WDG4581 — position and weather

sailwx.info

Track history (hours):
 
Tides and Currents Weather Stations Pressure Air Temp Water Temp Dewpoint Dewpoint Depression Visibility Wind Speed Wind Dir Waves Ship Positions

Midnight Sun

Owner: Findley, Bob, Seattle, WA. More information available from US FCC via Universal Licensing System and Coast Guard Vessel Documentation Center.

Last reported at 2015-May-27 21:05 UTC. Time now 2015-May-28 12:02 UTC.
Position N 47°38' W 122°25'.

Length 16 m.

Type: Pleasure craft. MMSI: 367538070.

Date/timePositionNaut miles runAvg speedWind from/ knotsBaromVisibWave heightAir tempDewpointWater temp
2015-May-27 21:05N 47°38' W 122°25'0 7.5
2015-May-27 21:03N 47°38' W 122°26'4 7.2
2015-May-27 20:27N 47°43' W 122°26'1 8.1
2015-May-27 20:17N 47°44' W 122°26'5 7.3
2015-May-27 19:33N 47°49' W 122°28'44 1.6
2015-May-26 15:17N 48°26' W 123°05'6 8.2
2015-May-26 14:34N 48°31' W 123°10'3 8.3
2015-May-26 14:14N 48°34' W 123°11'2 0.1
2015-May-25 23:15N 48°35' W 123°10'1 1.4
2015-May-25 22:18N 48°37' W 123°09'  
2015-May-20 23:33N 48°35' W 123°02'2 7.8
2015-May-20 23:20N 48°34' W 123°00'1 1.7
2015-May-20 22:31N 48°32' W 123°01'0 0.0
2015-May-20 21:31N 48°32' W 123°01'0 0.0
2015-May-19 17:32N 48°32' W 123°01'2 1.8
2015-May-19 16:27N 48°34' W 123°01'13 0.6
2015-May-18 18:24N 48°45' W 122°51'7 0.4
2015-May-18 01:33N 48°41' W 122°42'  
Track history (hours):
 
Tides and Currents Weather Stations Pressure Air Temp Water Temp Dewpoint Dewpoint Depression Visibility Wind Speed Wind Dir Waves Ship Positions

Midnight Sun

Owner: Findley, Bob, Seattle, WA. More information available from US FCC via Universal Licensing System and Coast Guard Vessel Documentation Center.

Last reported at 2015-May-27 21:05 UTC. Time now 2015-May-28 12:02 UTC.
Position N 47°38' W 122°25'.

Length 16 m.

Type: Pleasure craft. MMSI: 367538070.

Date/timePositionNaut miles runAvg speedWind from/ knotsBaromVisibWave heightAir tempDewpointWater temp
2015-May-27 21:05N 47°38' W 122°25'0 7.5
2015-May-27 21:03N 47°38' W 122°26'4 7.2
2015-May-27 20:27N 47°43' W 122°26'1 8.1
2015-May-27 20:17N 47°44' W 122°26'5 7.3
2015-May-27 19:33N 47°49' W 122°28'44 1.6
2015-May-26 15:17N 48°26' W 123°05'6 8.2
2015-May-26 14:34N 48°31' W 123°10'3 8.3
2015-May-26 14:14N 48°34' W 123°11'2 0.1
2015-May-25 23:15N 48°35' W 123°10'1 1.4
2015-May-25 22:18N 48°37' W 123°09'  
2015-May-20 23:33N 48°35' W 123°02'2 7.8
2015-May-20 23:20N 48°34' W 123°00'1 1.7
2015-May-20 22:31N 48°32' W 123°01'0 0.0
2015-May-20 21:31N 48°32' W 123°01'0 0.0
2015-May-19 17:32N 48°32' W 123°01'2 1.8
2015-May-19 16:27N 48°34' W 123°01'13 0.6
2015-May-18 18:24N 48°45' W 122°51'7 0.4
2015-May-18 01:33N 48°41' W 122°42'  

Dump ship's entire track history